sensor_id;sensor_type;location;lat;lon;timestamp;pressure;altitude;pressure_sealevel;temperature;humidity
65997;BME280;52765;52.258;21.052;2023-03-18T00:03:30;101181.78;;;4.26;51.00
65997;BME280;52765;52.258;21.052;2023-03-18T00:06:11;101190.63;;;4.27;51.00
65997;BME280;52765;52.258;21.052;2023-03-18T00:08:38;101177.56;;;4.22;51.18
65997;BME280;52765;52.258;21.052;2023-03-18T00:11:04;101185.56;;;4.22;51.25
65997;BME280;52765;52.258;21.052;2023-03-18T00:13:31;101181.09;;;4.23;51.13
65997;BME280;52765;52.258;21.052;2023-03-18T00:15:58;101182.25;;;4.19;51.12
65997;BME280;52765;52.258;21.052;2023-03-18T00:18:25;101184.63;;;4.23;51.12
65997;BME280;52765;52.258;21.052;2023-03-18T00:20:51;101175.97;;;4.20;50.86
65997;BME280;52765;52.258;21.052;2023-03-18T00:23:17;101177.00;;;4.17;51.28
65997;BME280;52765;52.258;21.052;2023-03-18T00:25:46;101175.19;;;4.18;51.04
65997;BME280;52765;52.258;21.052;2023-03-18T00:28:12;101175.28;;;4.16;50.71
65997;BME280;52765;52.258;21.052;2023-03-18T00:30:39;101172.72;;;4.15;51.35
65997;BME280;52765;52.258;21.052;2023-03-18T00:33:06;101170.91;;;4.15;51.10
65997;BME280;52765;52.258;21.052;2023-03-18T00:35:32;101173.28;;;4.05;51.44
65997;BME280;52765;52.258;21.052;2023-03-18T00:37:57;101163.19;;;4.11;51.18
65997;BME280;52765;52.258;21.052;2023-03-18T00:40:24;101157.00;;;4.10;51.66
65997;BME280;52765;52.258;21.052;2023-03-18T00:42:55;101159.94;;;4.05;51.51
65997;BME280;52765;52.258;21.052;2023-03-18T00:45:32;101159.47;;;3.99;51.54
65997;BME280;52765;52.258;21.052;2023-03-18T00:47:59;101149.09;;;3.94;52.02
65997;BME280;52765;52.258;21.052;2023-03-18T00:50:24;101150.91;;;3.94;51.37
65997;BME280;52765;52.258;21.052;2023-03-18T00:52:50;101154.22;;;3.97;51.58
65997;BME280;52765;52.258;21.052;2023-03-18T00:55:16;101151.09;;;3.91;52.02
65997;BME280;52765;52.258;21.052;2023-03-18T00:57:41;101141.38;;;3.89;51.73
65997;BME280;52765;52.258;21.052;2023-03-18T01:00:09;101140.44;;;3.91;51.57
65997;BME280;52765;52.258;21.052;2023-03-18T01:02:35;101147.75;;;3.87;52.49
65997;BME280;52765;52.258;21.052;2023-03-18T01:05:01;101146.03;;;3.86;52.29
65997;BME280;52765;52.258;21.052;2023-03-18T01:07:26;101131.28;;;3.80;51.76
65997;BME280;52765;52.258;21.052;2023-03-18T01:09:52;101138.91;;;3.86;51.35
65997;BME280;52765;52.258;21.052;2023-03-18T01:12:19;101132.03;;;3.82;51.41
65997;BME280;52765;52.258;21.052;2023-03-18T01:14:44;101128.91;;;3.76;51.59
65997;BME280;52765;52.258;21.052;2023-03-18T01:17:11;101128.22;;;3.72;52.13
65997;BME280;52765;52.258;21.052;2023-03-18T01:19:36;101117.94;;;3.66;52.00
65997;BME280;52765;52.258;21.052;2023-03-18T01:22:02;101126.41;;;3.73;51.25
65997;BME280;52765;52.258;21.052;2023-03-18T01:24:28;101119.09;;;3.76;50.85
65997;BME280;52765;52.258;21.052;2023-03-18T01:26:53;101109.56;;;3.72;51.01
65997;BME280;52765;52.258;21.052;2023-03-18T01:29:19;101106.72;;;3.75;51.12
65997;BME280;52765;52.258;21.052;2023-03-18T01:31:47;101111.88;;;3.78;50.82
65997;BME280;52765;52.258;21.052;2023-03-18T01:34:13;101106.91;;;3.72;50.90
65997;BME280;52765;52.258;21.052;2023-03-18T01:36:39;101108.81;;;3.70;51.14
65997;BME280;52765;52.258;21.052;2023-03-18T01:39:05;101100.91;;;3.68;51.11
65997;BME280;52765;52.258;21.052;2023-03-18T01:41:31;101104.63;;;3.66;50.90
65997;BME280;52765;52.258;21.052;2023-03-18T01:43:57;101110.03;;;3.64;51.09
65997;BME280;52765;52.258;21.052;2023-03-18T01:48:59;101103.69;;;3.67;50.75
65997;BME280;52765;52.258;21.052;2023-03-18T01:51:27;101115.66;;;3.60;50.91
65997;BME280;52765;52.258;21.052;2023-03-18T01:53:55;101103.19;;;3.60;50.69
65997;BME280;52765;52.258;21.052;2023-03-18T01:56:22;101102.13;;;3.63;50.83
65997;BME280;52765;52.258;21.052;2023-03-18T01:58:53;101098.34;;;3.67;51.08
65997;BME280;52765;52.258;21.052;2023-03-18T02:01:31;101100.63;;;3.59;51.42
65997;BME280;52765;52.258;21.052;2023-03-18T02:04:00;101102.91;;;3.65;50.95
65997;BME280;52765;52.258;21.052;2023-03-18T02:06:26;101102.44;;;3.58;50.57
65997;BME280;52765;52.258;21.052;2023-03-18T02:08:54;101100.72;;;3.57;51.21
65997;BME280;52765;52.258;21.052;2023-03-18T02:11:19;101098.91;;;3.58;51.35
65997;BME280;52765;52.258;21.052;2023-03-18T02:13:47;101100.03;;;3.54;51.54
65997;BME280;52765;52.258;21.052;2023-03-18T02:18:53;101101.88;;;3.53;51.32
65997;BME280;52765;52.258;21.052;2023-03-18T02:26:28;101103.00;;;3.63;51.32
65997;BME280;52765;52.258;21.052;2023-03-18T02:29:02;101095.38;;;3.57;51.24
65997;BME280;52765;52.258;21.052;2023-03-18T02:31:30;101089.41;;;3.54;51.61
65997;BME280;52765;52.258;21.052;2023-03-18T02:33:58;101083.97;;;3.55;51.49
65997;BME280;52765;52.258;21.052;2023-03-18T02:39:49;101093.00;;;3.52;51.51
65997;BME280;52765;52.258;21.052;2023-03-18T02:42:27;101090.06;;;3.57;51.17
65997;BME280;52765;52.258;21.052;2023-03-18T02:44:52;101091.47;;;3.48;51.96
65997;BME280;52765;52.258;21.052;2023-03-18T02:47:20;101095.25;;;3.44;52.04
65997;BME280;52765;52.258;21.052;2023-03-18T02:49:46;101089.09;;;3.44;51.87
65997;BME280;52765;52.258;21.052;2023-03-18T02:52:12;101088.41;;;3.40;51.56
65997;BME280;52765;52.258;21.052;2023-03-18T02:54:37;101088.50;;;3.39;52.13
65997;BME280;52765;52.258;21.052;2023-03-18T02:57:03;101087.44;;;3.41;51.41
65997;BME280;52765;52.258;21.052;2023-03-18T02:59:28;101095.19;;;3.46;51.66
65997;BME280;52765;52.258;21.052;2023-03-18T03:01:57;101078.25;;;3.47;51.46
65997;BME280;52765;52.258;21.052;2023-03-18T03:04:25;101070.06;;;3.50;51.31
65997;BME280;52765;52.258;21.052;2023-03-18T03:06:51;101068.34;;;3.49;51.44
65997;BME280;52765;52.258;21.052;2023-03-18T03:09:17;101075.31;;;3.51;51.30
65997;BME280;52765;52.258;21.052;2023-03-18T03:11:45;101085.97;;;3.51;51.95
65997;BME280;52765;52.258;21.052;2023-03-18T03:14:12;101073.59;;;3.50;51.48
65997;BME280;52765;52.258;21.052;2023-03-18T03:16:38;101065.78;;;3.47;51.71
65997;BME280;52765;52.258;21.052;2023-03-18T03:19:04;101076.44;;;3.47;51.16
65997;BME280;52765;52.258;21.052;2023-03-18T03:21:31;101076.03;;;3.39;52.11
65997;BME280;52765;52.258;21.052;2023-03-18T03:23:58;101069.78;;;3.40;51.73
65997;BME280;52765;52.258;21.052;2023-03-18T03:26:23;101068.72;;;3.43;51.64
65997;BME280;52765;52.258;21.052;2023-03-18T03:28:49;101067.69;;;3.45;51.36
65997;BME280;52765;52.258;21.052;2023-03-18T03:31:15;101064.84;;;3.48;51.64
65997;BME280;52765;52.258;21.052;2023-03-18T03:33:42;101068.44;;;3.47;51.56
65997;BME280;52765;52.258;21.052;2023-03-18T03:36:10;101072.94;;;3.47;51.80
65997;BME280;52765;52.258;21.052;2023-03-18T03:38:35;101072.84;;;3.48;51.29
65997;BME280;52765;52.258;21.052;2023-03-18T03:41:01;101071.94;;;3.48;51.01
65997;BME280;52765;52.258;21.052;2023-03-18T03:43:27;101064.94;;;3.47;50.99
65997;BME280;52765;52.258;21.052;2023-03-18T03:45:52;101047.50;;;3.41;51.62
65997;BME280;52765;52.258;21.052;2023-03-18T03:48:18;101070.34;;;3.45;51.66
65997;BME280;52765;52.258;21.052;2023-03-18T03:50:44;101060.25;;;3.36;51.58
65997;BME280;52765;52.258;21.052;2023-03-18T03:53:09;101052.44;;;3.33;51.16
65997;BME280;52765;52.258;21.052;2023-03-18T03:55:35;101058.53;;;3.35;51.20
65997;BME280;52765;52.258;21.052;2023-03-18T03:58:01;101065.16;;;3.28;51.37
65997;BME280;52765;52.258;21.052;2023-03-18T04:00:26;101060.81;;;3.27;51.56
65997;BME280;52765;52.258;21.052;2023-03-18T04:02:52;101060.81;;;3.27;51.50
65997;BME280;52765;52.258;21.052;2023-03-18T04:05:22;101071.19;;;3.31;51.47
65997;BME280;52765;52.258;21.052;2023-03-18T04:07:49;101074.13;;;3.27;51.57
65997;BME280;52765;52.258;21.052;2023-03-18T04:10:17;101075.06;;;3.26;51.31
65997;BME280;52765;52.258;21.052;2023-03-18T04:12:44;101074.72;;;3.32;50.67
65997;BME280;52765;52.258;21.052;2023-03-18T04:15:15;101073.06;;;3.29;51.13
65997;BME280;52765;52.258;21.052;2023-03-18T04:17:41;101071.75;;;3.22;51.08
65997;BME280;52765;52.258;21.052;2023-03-18T04:20:07;101083.31;;;3.21;51.43
65997;BME280;52765;52.258;21.052;2023-03-18T04:22:33;101090.56;;;3.19;51.42
65997;BME280;52765;52.258;21.052;2023-03-18T04:25:07;101091.69;;;3.15;51.65
65997;BME280;52765;52.258;21.052;2023-03-18T04:27:33;101087.97;;;3.18;51.31
65997;BME280;52765;52.258;21.052;2023-03-18T04:29:58;101077.81;;;3.10;51.67
65997;BME280;52765;52.258;21.052;2023-03-18T04:32:25;101089.78;;;3.17;52.04
65997;BME280;52765;52.258;21.052;2023-03-18T04:34:50;101084.81;;;3.11;52.07
65997;BME280;52765;52.258;21.052;2023-03-18T04:37:16;101088.44;;;3.10;52.05
65997;BME280;52765;52.258;21.052;2023-03-18T04:39:45;101092.31;;;3.04;51.97
65997;BME280;52765;52.258;21.052;2023-03-18T04:42:11;101087.06;;;3.03;52.12
65997;BME280;52765;52.258;21.052;2023-03-18T04:44:37;101093.16;;;3.05;51.59
65997;BME280;52765;52.258;21.052;2023-03-18T04:47:03;101090.25;;;3.09;51.51
65997;BME280;52765;52.258;21.052;2023-03-18T04:49:28;101089.66;;;3.04;52.30
65997;BME280;52765;52.258;21.052;2023-03-18T04:51:53;101094.03;;;3.05;52.69
65997;BME280;52765;52.258;21.052;2023-03-18T04:54:19;101091.06;;;2.95;52.25
65997;BME280;52765;52.258;21.052;2023-03-18T04:56:47;101095.31;;;2.98;52.26
65997;BME280;52765;52.258;21.052;2023-03-18T04:59:16;101095.25;;;3.00;52.11
65997;BME280;52765;52.258;21.052;2023-03-18T05:01:46;101102.97;;;3.04;52.02
65997;BME280;52765;52.258;21.052;2023-03-18T05:04:11;101089.38;;;3.09;52.32
65997;BME280;52765;52.258;21.052;2023-03-18T05:06:37;101085.88;;;3.08;52.06
65997;BME280;52765;52.258;21.052;2023-03-18T05:09:03;101093.47;;;3.14;52.14
65997;BME280;52765;52.258;21.052;2023-03-18T05:11:29;101075.59;;;3.02;52.09
65997;BME280;52765;52.258;21.052;2023-03-18T05:13:58;101080.66;;;3.07;52.32
65997;BME280;52765;52.258;21.052;2023-03-18T05:16:23;101075.06;;;3.11;52.58
65997;BME280;52765;52.258;21.052;2023-03-18T05:18:49;101077.72;;;3.11;51.78
65997;BME280;52765;52.258;21.052;2023-03-18T05:21:14;101092.38;;;3.19;52.21
65997;BME280;52765;52.258;21.052;2023-03-18T05:23:41;101092.94;;;3.24;52.86
65997;BME280;52765;52.258;21.052;2023-03-18T05:26:10;101093.63;;;3.27;52.64
65997;BME280;52765;52.258;21.052;2023-03-18T05:28:37;101099.63;;;3.31;52.01
65997;BME280;52765;52.258;21.052;2023-03-18T05:31:03;101089.06;;;3.29;52.26
65997;BME280;52765;52.258;21.052;2023-03-18T05:33:29;101089.53;;;3.36;52.29
65997;BME280;52765;52.258;21.052;2023-03-18T05:35:54;101082.34;;;3.38;52.23
65997;BME280;52765;52.258;21.052;2023-03-18T05:38:20;101083.94;;;3.41;52.25
65997;BME280;52765;52.258;21.052;2023-03-18T05:40:45;101080.44;;;3.40;51.89
65997;BME280;52765;52.258;21.052;2023-03-18T05:43:11;101067.28;;;3.37;52.13
65997;BME280;52765;52.258;21.052;2023-03-18T05:45:37;101074.53;;;3.49;51.53
65997;BME280;52765;52.258;21.052;2023-03-18T05:48:03;101079.03;;;3.63;51.03
65997;BME280;52765;52.258;21.052;2023-03-18T05:50:34;101083.97;;;3.69;50.47
65997;BME280;52765;52.258;21.052;2023-03-18T05:53:02;101088.47;;;3.83;50.57
65997;BME280;52765;52.258;21.052;2023-03-18T05:55:28;101070.38;;;3.88;49.56
65997;BME280;52765;52.258;21.052;2023-03-18T05:57:55;101070.75;;;3.97;49.41
65997;BME280;52765;52.258;21.052;2023-03-18T06:00:27;101070.84;;;3.95;49.60
65997;BME280;52765;52.258;21.052;2023-03-18T06:02:55;101081.41;;;3.97;49.82
65997;BME280;52765;52.258;21.052;2023-03-18T06:05:21;101074.16;;;3.99;50.18
65997;BME280;52765;52.258;21.052;2023-03-18T06:07:49;101078.16;;;4.06;49.73
65997;BME280;52765;52.258;21.052;2023-03-18T06:10:15;101079.69;;;4.10;49.17
65997;BME280;52765;52.258;21.052;2023-03-18T06:12:41;101082.72;;;4.18;49.50
65997;BME280;52765;52.258;21.052;2023-03-18T06:15:10;101065.25;;;4.27;48.84
65997;BME280;52765;52.258;21.052;2023-03-18T06:17:36;101067.72;;;4.30;48.93
65997;BME280;52765;52.258;21.052;2023-03-18T06:20:03;101069.31;;;4.47;48.12
65997;BME280;52765;52.258;21.052;2023-03-18T06:22:29;101068.81;;;4.55;48.06
65997;BME280;52765;52.258;21.052;2023-03-18T06:24:55;101066.28;;;4.66;47.09
65997;BME280;52765;52.258;21.052;2023-03-18T06:27:21;101068.28;;;4.62;47.24
65997;BME280;52765;52.258;21.052;2023-03-18T06:29:47;101058.28;;;4.66;47.16
65997;BME280;52765;52.258;21.052;2023-03-18T06:32:13;101056.03;;;4.73;47.06
65997;BME280;52765;52.258;21.052;2023-03-18T06:34:38;101067.91;;;4.69;47.45
65997;BME280;52765;52.258;21.052;2023-03-18T06:37:04;101060.88;;;4.80;46.74
65997;BME280;52765;52.258;21.052;2023-03-18T06:39:32;101068.50;;;4.87;46.84
65997;BME280;52765;52.258;21.052;2023-03-18T06:41:59;101064.84;;;4.88;47.33
65997;BME280;52765;52.258;21.052;2023-03-18T06:44:24;101067.66;;;4.99;46.70
65997;BME280;52765;52.258;21.052;2023-03-18T06:46:52;101071.84;;;5.03;46.33
65997;BME280;52765;52.258;21.052;2023-03-18T06:49:18;101066.63;;;5.14;45.66
65997;BME280;52765;52.258;21.052;2023-03-18T06:51:46;101067.72;;;5.25;45.88
65997;BME280;52765;52.258;21.052;2023-03-18T06:54:12;101066.09;;;5.22;46.23
65997;BME280;52765;52.258;21.052;2023-03-18T06:56:38;101070.16;;;5.28;46.14
65997;BME280;52765;52.258;21.052;2023-03-18T06:59:06;101069.44;;;5.38;46.19
65997;BME280;52765;52.258;21.052;2023-03-18T07:01:36;101060.34;;;5.41;45.25
65997;BME280;52765;52.258;21.052;2023-03-18T07:04:02;101075.00;;;5.61;45.10
65997;BME280;52765;52.258;21.052;2023-03-18T07:06:31;101064.19;;;5.75;44.93
65997;BME280;52765;52.258;21.052;2023-03-18T07:08:58;101059.16;;;5.84;44.38
65997;BME280;52765;52.258;21.052;2023-03-18T07:11:25;101067.91;;;5.86;44.63
65997;BME280;52765;52.258;21.052;2023-03-18T07:13:51;101072.75;;;5.93;44.16
65997;BME280;52765;52.258;21.052;2023-03-18T07:16:17;101069.31;;;6.04;44.38
65997;BME280;52765;52.258;21.052;2023-03-18T07:18:43;101069.28;;;6.17;44.25
65997;BME280;52765;52.258;21.052;2023-03-18T07:21:08;101066.22;;;6.10;43.76
65997;BME280;52765;52.258;21.052;2023-03-18T07:23:34;101070.50;;;6.13;43.80
65997;BME280;52765;52.258;21.052;2023-03-18T07:26:00;101082.78;;;6.16;43.91
65997;BME280;52765;52.258;21.052;2023-03-18T07:28:25;101074.72;;;6.28;43.43
65997;BME280;52765;52.258;21.052;2023-03-18T07:30:51;101075.97;;;6.36;43.41
65997;BME280;52765;52.258;21.052;2023-03-18T07:33:16;101079.03;;;6.55;42.70
65997;BME280;52765;52.258;21.052;2023-03-18T07:35:42;101083.06;;;6.61;42.66
65997;BME280;52765;52.258;21.052;2023-03-18T07:38:09;101087.25;;;6.65;42.33
65997;BME280;52765;52.258;21.052;2023-03-18T07:40:38;101082.50;;;6.69;42.07
65997;BME280;52765;52.258;21.052;2023-03-18T07:43:05;101081.56;;;6.81;41.97
65997;BME280;52765;52.258;21.052;2023-03-18T07:45:31;101094.53;;;6.87;41.92
65997;BME280;52765;52.258;21.052;2023-03-18T07:47:57;101078.22;;;6.90;41.33
65997;BME280;52765;52.258;21.052;2023-03-18T07:50:23;101088.09;;;6.90;41.40
65997;BME280;52765;52.258;21.052;2023-03-18T07:52:48;101087.16;;;7.02;41.50
65997;BME280;52765;52.258;21.052;2023-03-18T07:55:14;101094.91;;;7.18;41.30
65997;BME280;52765;52.258;21.052;2023-03-18T07:57:39;101091.63;;;7.26;41.92
65997;BME280;52765;52.258;21.052;2023-03-18T08:00:07;101081.50;;;7.29;41.42
65997;BME280;52765;52.258;21.052;2023-03-18T08:02:32;101085.59;;;7.46;40.89
65997;BME280;52765;52.258;21.052;2023-03-18T08:05:00;101082.81;;;7.48;40.10
65997;BME280;52765;52.258;21.052;2023-03-18T08:07:26;101084.75;;;7.57;40.70
65997;BME280;52765;52.258;21.052;2023-03-18T08:09:51;101081.81;;;7.49;40.08
65997;BME280;52765;52.258;21.052;2023-03-18T08:12:17;101078.63;;;7.44;40.56
65997;BME280;52765;52.258;21.052;2023-03-18T08:14:43;101077.41;;;7.36;40.66
65997;BME280;52765;52.258;21.052;2023-03-18T08:17:08;101078.41;;;7.47;40.93
65997;BME280;52765;52.258;21.052;2023-03-18T08:19:34;101081.97;;;7.70;40.96
65997;BME280;52765;52.258;21.052;2023-03-18T08:22:00;101068.31;;;7.84;41.17
65997;BME280;52765;52.258;21.052;2023-03-18T08:24:26;101071.47;;;8.01;40.81
65997;BME280;52765;52.258;21.052;2023-03-18T08:26:51;101076.00;;;8.11;40.56
65997;BME280;52765;52.258;21.052;2023-03-18T08:29:17;101064.38;;;8.22;39.86
65997;BME280;52765;52.258;21.052;2023-03-18T08:31:43;101056.81;;;8.27;39.91
65997;BME280;52765;52.258;21.052;2023-03-18T08:34:08;101057.91;;;8.36;39.79
65997;BME280;52765;52.258;21.052;2023-03-18T08:36:35;101053.78;;;8.43;38.69
65997;BME280;52765;52.258;21.052;2023-03-18T08:39:02;101054.25;;;8.37;39.71
65997;BME280;52765;52.258;21.052;2023-03-18T08:41:29;101058.75;;;8.37;38.71
65997;BME280;52765;52.258;21.052;2023-03-18T08:43:55;101056.81;;;8.50;39.57
65997;BME280;52765;52.258;21.052;2023-03-18T08:46:22;101063.41;;;8.34;38.44
65997;BME280;52765;52.258;21.052;2023-03-18T08:48:50;101049.88;;;8.25;38.84
65997;BME280;52765;52.258;21.052;2023-03-18T08:51:19;101047.06;;;8.26;38.80
65997;BME280;52765;52.258;21.052;2023-03-18T08:53:47;101049.25;;;8.32;38.60
65997;BME280;52765;52.258;21.052;2023-03-18T08:56:16;101038.50;;;8.44;38.33
65997;BME280;52765;52.258;21.052;2023-03-18T08:58:42;101040.69;;;8.50;38.05
65997;BME280;52765;52.258;21.052;2023-03-18T09:01:11;101051.41;;;8.61;38.10
65997;BME280;52765;52.258;21.052;2023-03-18T09:03:36;101038.31;;;8.68;37.64
65997;BME280;52765;52.258;21.052;2023-03-18T09:06:03;101031.72;;;8.72;37.71
65997;BME280;52765;52.258;21.052;2023-03-18T09:08:29;101034.09;;;8.86;38.12
65997;BME280;52765;52.258;21.052;2023-03-18T09:10:57;101023.94;;;8.90;37.99
65997;BME280;52765;52.258;21.052;2023-03-18T09:13:23;101035.75;;;8.99;37.12
65997;BME280;52765;52.258;21.052;2023-03-18T09:15:53;101028.69;;;8.98;37.18
65997;BME280;52765;52.258;21.052;2023-03-18T09:18:19;101015.63;;;8.93;36.66
65997;BME280;52765;52.258;21.052;2023-03-18T09:20:47;101031.63;;;8.95;37.17
65997;BME280;52765;52.258;21.052;2023-03-18T09:23:13;101029.47;;;9.10;37.35
65997;BME280;52765;52.258;21.052;2023-03-18T09:25:40;101046.63;;;9.18;36.79
65997;BME280;52765;52.258;21.052;2023-03-18T09:28:09;101022.19;;;9.21;36.00
65997;BME280;52765;52.258;21.052;2023-03-18T09:30:37;101025.00;;;9.20;36.93
65997;BME280;52765;52.258;21.052;2023-03-18T09:33:14;101024.81;;;9.33;36.56
65997;BME280;52765;52.258;21.052;2023-03-18T09:35:44;101027.25;;;9.45;36.45
65997;BME280;52765;52.258;21.052;2023-03-18T09:38:17;101026.47;;;9.55;36.58
65997;BME280;52765;52.258;21.052;2023-03-18T09:41:16;101027.81;;;9.70;36.38
65997;BME280;52765;52.258;21.052;2023-03-18T09:44:06;101022.94;;;9.85;36.52
65997;BME280;52765;52.258;21.052;2023-03-18T09:49:27;101010.25;;;10.07;36.23
65997;BME280;52765;52.258;21.052;2023-03-18T09:52:21;101016.66;;;10.15;36.19
65997;BME280;52765;52.258;21.052;2023-03-18T09:54:55;101015.41;;;10.29;35.96
65997;BME280;52765;52.258;21.052;2023-03-18T09:57:23;101007.38;;;10.39;36.16
65997;BME280;52765;52.258;21.052;2023-03-18T09:59:53;101011.78;;;10.50;35.46
65997;BME280;52765;52.258;21.052;2023-03-18T10:05:03;101001.28;;;10.47;34.89
65997;BME280;52765;52.258;21.052;2023-03-18T10:07:38;101011.38;;;10.54;34.51
65997;BME280;52765;52.258;21.052;2023-03-18T10:10:19;101022.25;;;10.33;33.91
65997;BME280;52765;52.258;21.052;2023-03-18T10:12:50;101003.25;;;10.35;34.00
65997;BME280;52765;52.258;21.052;2023-03-18T10:18:04;100994.34;;;10.54;34.21
65997;BME280;52765;52.258;21.052;2023-03-18T10:20:50;100989.13;;;10.52;33.37
65997;BME280;52765;52.258;21.052;2023-03-18T10:26:56;100989.69;;;10.56;33.68
65997;BME280;52765;52.258;21.052;2023-03-18T10:34:28;100982.06;;;10.21;34.22
65997;BME280;52765;52.258;21.052;2023-03-18T10:37:18;100985.66;;;10.31;34.42
65997;BME280;52765;52.258;21.052;2023-03-18T10:39:48;100973.31;;;10.28;34.23
65997;BME280;52765;52.258;21.052;2023-03-18T10:42:22;100981.25;;;10.30;34.87
65997;BME280;52765;52.258;21.052;2023-03-18T10:45:15;100977.44;;;10.23;34.41
65997;BME280;52765;52.258;21.052;2023-03-18T10:47:51;100985.25;;;10.35;33.84
65997;BME280;52765;52.258;21.052;2023-03-18T10:50:34;100972.06;;;10.42;33.96
65997;BME280;52765;52.258;21.052;2023-03-18T10:53:12;100966.84;;;10.50;33.43
65997;BME280;52765;52.258;21.052;2023-03-18T10:55:57;100968.41;;;10.53;33.59
65997;BME280;52765;52.258;21.052;2023-03-18T10:58:26;100967.41;;;10.54;33.55
65997;BME280;52765;52.258;21.052;2023-03-18T11:00:53;100972.09;;;10.62;33.65
65997;BME280;52765;52.258;21.052;2023-03-18T11:03:26;100967.25;;;10.75;33.09
65997;BME280;52765;52.258;21.052;2023-03-18T11:05:55;100953.22;;;10.81;33.03
65997;BME280;52765;52.258;21.052;2023-03-18T11:08:35;100957.44;;;10.93;32.98
65997;BME280;52765;52.258;21.052;2023-03-18T11:13:49;100964.03;;;11.28;32.81
65997;BME280;52765;52.258;21.052;2023-03-18T11:16:32;100957.06;;;11.36;32.55
65997;BME280;52765;52.258;21.052;2023-03-18T11:18:58;100937.19;;;11.37;32.55
65997;BME280;52765;52.258;21.052;2023-03-18T11:21:26;100952.41;;;11.28;32.18
65997;BME280;52765;52.258;21.052;2023-03-18T11:24:02;100931.97;;;11.25;32.76
65997;BME280;52765;52.258;21.052;2023-03-18T11:26:54;100948.88;;;11.27;33.13
65997;BME280;52765;52.258;21.052;2023-03-18T11:29:32;100925.44;;;11.28;33.02
65997;BME280;52765;52.258;21.052;2023-03-18T11:32:00;100939.16;;;11.44;32.66
65997;BME280;52765;52.258;21.052;2023-03-18T11:34:29;100926.56;;;11.63;32.06
65997;BME280;52765;52.258;21.052;2023-03-18T11:36:59;100930.84;;;11.83;32.08
65997;BME280;52765;52.258;21.052;2023-03-18T11:39:30;100927.09;;;12.04;32.01
65997;BME280;52765;52.258;21.052;2023-03-18T11:41:58;100917.00;;;12.24;31.92
65997;BME280;52765;52.258;21.052;2023-03-18T11:44:31;100925.06;;;12.42;31.77
65997;BME280;52765;52.258;21.052;2023-03-18T11:47:12;100915.88;;;12.53;32.04
65997;BME280;52765;52.258;21.052;2023-03-18T11:49:40;100909.88;;;12.59;31.69
65997;BME280;52765;52.258;21.052;2023-03-18T12:00:31;100903.47;;;12.86;30.89
65997;BME280;52765;52.258;21.052;2023-03-18T12:06:10;100912.53;;;13.03;30.42
65997;BME280;52765;52.258;21.052;2023-03-18T12:14:49;100898.75;;;13.14;30.42
65997;BME280;52765;52.258;21.052;2023-03-18T12:25:59;100905.53;;;13.87;29.48
65997;BME280;52765;52.258;21.052;2023-03-18T12:33:56;100887.63;;;14.03;29.19
65997;BME280;52765;52.258;21.052;2023-03-18T12:39:32;100884.94;;;14.19;29.49
65997;BME280;52765;52.258;21.052;2023-03-18T12:42:03;100884.78;;;14.37;29.10
65997;BME280;52765;52.258;21.052;2023-03-18T12:47:14;100875.81;;;14.61;29.36
65997;BME280;52765;52.258;21.052;2023-03-18T12:49:47;100888.84;;;14.50;29.42
65997;BME280;52765;52.258;21.052;2023-03-18T12:55:14;100873.09;;;14.61;29.09
65997;BME280;52765;52.258;21.052;2023-03-18T12:57:52;100869.72;;;14.68;29.17
65997;BME280;52765;52.258;21.052;2023-03-18T13:00:26;100875.13;;;14.84;28.77
65997;BME280;52765;52.258;21.052;2023-03-18T13:03:23;100866.63;;;14.95;29.01
65997;BME280;52765;52.258;21.052;2023-03-18T13:06:11;100865.88;;;15.18;28.41
65997;BME280;52765;52.258;21.052;2023-03-18T13:13:36;100868.31;;;14.88;28.44
65997;BME280;52765;52.258;21.052;2023-03-18T13:16:06;100857.81;;;14.85;28.82
65997;BME280;52765;52.258;21.052;2023-03-18T13:18:44;100871.84;;;14.97;28.63
65997;BME280;52765;52.258;21.052;2023-03-18T13:21:16;100867.16;;;14.91;28.39
65997;BME280;52765;52.258;21.052;2023-03-18T13:29:22;100847.97;;;15.40;28.34
65997;BME280;52765;52.258;21.052;2023-03-18T13:31:53;100854.06;;;15.50;27.69
65997;BME280;52765;52.258;21.052;2023-03-18T13:42:32;100840.34;;;16.06;27.02
65997;BME280;52765;52.258;21.052;2023-03-18T13:45:17;100839.97;;;16.09;27.19
65997;BME280;52765;52.258;21.052;2023-03-18T13:47:58;100830.69;;;16.04;27.22
65997;BME280;52765;52.258;21.052;2023-03-18T13:50:26;100835.78;;;15.76;27.40
65997;BME280;52765;52.258;21.052;2023-03-18T13:52:55;100840.03;;;15.70;27.88
65997;BME280;52765;52.258;21.052;2023-03-18T13:55:40;100821.41;;;15.59;27.71
65997;BME280;52765;52.258;21.052;2023-03-18T14:00:38;100813.56;;;15.41;28.34
65997;BME280;52765;52.258;21.052;2023-03-18T14:05:50;100824.59;;;15.39;27.98
65997;BME280;52765;52.258;21.052;2023-03-18T14:13:53;100830.00;;;14.99;29.39
65997;BME280;52765;52.258;21.052;2023-03-18T14:17:11;100823.09;;;14.80;29.75
65997;BME280;52765;52.258;21.052;2023-03-18T14:19:17;100826.00;;;14.71;29.72
65997;BME280;52765;52.258;21.052;2023-03-18T14:22:04;100825.50;;;14.51;29.96
65997;BME280;52765;52.258;21.052;2023-03-18T14:24:30;100826.66;;;14.48;29.57
65997;BME280;52765;52.258;21.052;2023-03-18T14:29:38;100814.97;;;14.48;30.23
65997;BME280;52765;52.258;21.052;2023-03-18T14:32:05;100814.50;;;14.60;30.25
65997;BME280;52765;52.258;21.052;2023-03-18T14:34:56;100802.94;;;14.75;29.63
65997;BME280;52765;52.258;21.052;2023-03-18T14:37:31;100805.59;;;14.91;29.61
65997;BME280;52765;52.258;21.052;2023-03-18T14:40:18;100791.31;;;15.06;29.76
65997;BME280;52765;52.258;21.052;2023-03-18T14:42:54;100794.19;;;15.04;29.28
65997;BME280;52765;52.258;21.052;2023-03-18T14:45:35;100801.84;;;15.01;29.43